sensor_id;sensor_type;location;lat;lon;timestamp;P1;durP1;ratioP1;P2;durP2;ratioP2
35777;SDS011;21899;42.662;23.316;2023-03-01T00:01:49;9.73;;;5.03;;
35777;SDS011;21899;42.662;23.316;2023-03-01T00:04:14;8.77;;;5.07;;
35777;SDS011;21899;42.662;23.316;2023-03-01T00:06:40;9.38;;;4.28;;
35777;SDS011;21899;42.662;23.316;2023-03-01T00:09:08;10.02;;;5.00;;
35777;SDS011;21899;42.662;23.316;2023-03-01T00:11:33;8.70;;;4.60;;
35777;SDS011;21899;42.662;23.316;2023-03-01T00:13:59;7.45;;;4.57;;
35777;SDS011;21899;42.662;23.316;2023-03-01T00:16:27;8.55;;;4.70;;
35777;SDS011;21899;42.662;23.316;2023-03-01T00:18:55;9.23;;;4.40;;
35777;SDS011;21899;42.662;23.316;2023-03-01T00:21:21;7.75;;;4.07;;
35777;SDS011;21899;42.662;23.316;2023-03-01T00:23:48;7.78;;;4.90;;
35777;SDS011;21899;42.662;23.316;2023-03-01T00:26:13;9.02;;;4.78;;
35777;SDS011;21899;42.662;23.316;2023-03-01T00:28:41;6.90;;;4.07;;
35777;SDS011;21899;42.662;23.316;2023-03-01T00:31:07;7.65;;;4.25;;
35777;SDS011;21899;42.662;23.316;2023-03-01T00:33:35;6.30;;;3.95;;
35777;SDS011;21899;42.662;23.316;2023-03-01T00:36:01;6.90;;;3.88;;
35777;SDS011;21899;42.662;23.316;2023-03-01T00:38:28;8.63;;;4.18;;
35777;SDS011;21899;42.662;23.316;2023-03-01T00:40:53;7.10;;;4.65;;
35777;SDS011;21899;42.662;23.316;2023-03-01T00:43:19;7.38;;;3.80;;
35777;SDS011;21899;42.662;23.316;2023-03-01T00:45:44;8.40;;;4.28;;
35777;SDS011;21899;42.662;23.316;2023-03-01T00:48:10;6.35;;;3.47;;
35777;SDS011;21899;42.662;23.316;2023-03-01T00:50:35;6.00;;;3.70;;
35777;SDS011;21899;42.662;23.316;2023-03-01T00:53:01;5.65;;;3.83;;
35777;SDS011;21899;42.662;23.316;2023-03-01T00:55:26;7.25;;;4.03;;
35777;SDS011;21899;42.662;23.316;2023-03-01T00:57:52;6.20;;;4.05;;
35777;SDS011;21899;42.662;23.316;2023-03-01T01:00:18;6.57;;;3.88;;
35777;SDS011;21899;42.662;23.316;2023-03-01T01:02:44;7.63;;;4.13;;
35777;SDS011;21899;42.662;23.316;2023-03-01T01:05:10;6.85;;;4.05;;
35777;SDS011;21899;42.662;23.316;2023-03-01T01:07:36;6.95;;;3.58;;
35777;SDS011;21899;42.662;23.316;2023-03-01T01:10:01;5.93;;;3.50;;
35777;SDS011;21899;42.662;23.316;2023-03-01T01:12:27;5.88;;;3.78;;
35777;SDS011;21899;42.662;23.316;2023-03-01T01:14:52;6.32;;;3.53;;
35777;SDS011;21899;42.662;23.316;2023-03-01T01:17:18;4.82;;;2.97;;
35777;SDS011;21899;42.662;23.316;2023-03-01T01:19:43;5.57;;;3.28;;
35777;SDS011;21899;42.662;23.316;2023-03-01T01:22:08;6.03;;;3.50;;
35777;SDS011;21899;42.662;23.316;2023-03-01T01:24:34;4.95;;;3.20;;
35777;SDS011;21899;42.662;23.316;2023-03-01T01:27:00;4.85;;;3.08;;
35777;SDS011;21899;42.662;23.316;2023-03-01T01:29:25;6.53;;;3.20;;
35777;SDS011;21899;42.662;23.316;2023-03-01T01:31:51;6.60;;;3.60;;
35777;SDS011;21899;42.662;23.316;2023-03-01T01:34:17;5.18;;;2.70;;
35777;SDS011;21899;42.662;23.316;2023-03-01T01:36:47;4.07;;;2.33;;
35777;SDS011;21899;42.662;23.316;2023-03-01T01:39:13;4.82;;;2.80;;
35777;SDS011;21899;42.662;23.316;2023-03-01T01:41:40;4.35;;;2.55;;
35777;SDS011;21899;42.662;23.316;2023-03-01T01:49:31;6.95;;;2.60;;
35777;SDS011;21899;42.662;23.316;2023-03-01T01:54:58;3.63;;;2.13;;
35777;SDS011;21899;42.662;23.316;2023-03-01T01:57:34;5.90;;;2.53;;
35777;SDS011;21899;42.662;23.316;2023-03-01T02:00:04;5.55;;;2.30;;
35777;SDS011;21899;42.662;23.316;2023-03-01T02:02:32;3.47;;;2.15;;
35777;SDS011;21899;42.662;23.316;2023-03-01T02:05:03;3.67;;;2.42;;
35777;SDS011;21899;42.662;23.316;2023-03-01T02:07:52;3.88;;;2.20;;
35777;SDS011;21899;42.662;23.316;2023-03-01T02:10:19;4.43;;;2.30;;
35777;SDS011;21899;42.662;23.316;2023-03-01T02:12:46;3.58;;;2.33;;
35777;SDS011;21899;42.662;23.316;2023-03-01T02:15:11;3.28;;;2.20;;
35777;SDS011;21899;42.662;23.316;2023-03-01T02:17:36;3.42;;;2.35;;
35777;SDS011;21899;42.662;23.316;2023-03-01T02:22:49;4.85;;;2.67;;
35777;SDS011;21899;42.662;23.316;2023-03-01T02:27:51;3.75;;;1.98;;
35777;SDS011;21899;42.662;23.316;2023-03-01T02:30:26;3.17;;;2.25;;
35777;SDS011;21899;42.662;23.316;2023-03-01T02:32:53;3.70;;;2.50;;
35777;SDS011;21899;42.662;23.316;2023-03-01T02:35:27;4.25;;;2.55;;
35777;SDS011;21899;42.662;23.316;2023-03-01T02:37:58;3.80;;;2.40;;
35777;SDS011;21899;42.662;23.316;2023-03-01T02:40:27;3.42;;;2.30;;
35777;SDS011;21899;42.662;23.316;2023-03-01T02:42:56;3.95;;;2.63;;
35777;SDS011;21899;42.662;23.316;2023-03-01T02:45:23;3.83;;;2.60;;
35777;SDS011;21899;42.662;23.316;2023-03-01T02:47:48;4.30;;;2.60;;
35777;SDS011;21899;42.662;23.316;2023-03-01T02:55:31;4.47;;;2.88;;
35777;SDS011;21899;42.662;23.316;2023-03-01T02:57:57;4.55;;;3.03;;
35777;SDS011;21899;42.662;23.316;2023-03-01T03:00:28;5.22;;;3.20;;
35777;SDS011;21899;42.662;23.316;2023-03-01T03:02:58;5.38;;;3.13;;
35777;SDS011;21899;42.662;23.316;2023-03-01T03:05:27;7.88;;;3.35;;
35777;SDS011;21899;42.662;23.316;2023-03-01T03:07:55;5.20;;;3.35;;
35777;SDS011;21899;42.662;23.316;2023-03-01T03:10:22;7.13;;;4.18;;
35777;SDS011;21899;42.662;23.316;2023-03-01T03:12:52;5.30;;;3.53;;
35777;SDS011;21899;42.662;23.316;2023-03-01T03:15:22;7.85;;;4.60;;
35777;SDS011;21899;42.662;23.316;2023-03-01T03:17:50;9.15;;;3.97;;
35777;SDS011;21899;42.662;23.316;2023-03-01T03:20:17;6.55;;;4.05;;
35777;SDS011;21899;42.662;23.316;2023-03-01T03:22:46;7.45;;;4.63;;
35777;SDS011;21899;42.662;23.316;2023-03-01T03:25:12;8.00;;;4.85;;
35777;SDS011;21899;42.662;23.316;2023-03-01T03:27:38;9.60;;;5.72;;
35777;SDS011;21899;42.662;23.316;2023-03-01T03:30:06;8.95;;;5.55;;
35777;SDS011;21899;42.662;23.316;2023-03-01T03:32:36;7.65;;;4.55;;
35777;SDS011;21899;42.662;23.316;2023-03-01T03:35:03;8.32;;;5.30;;
35777;SDS011;21899;42.662;23.316;2023-03-01T03:37:35;8.77;;;4.75;;
35777;SDS011;21899;42.662;23.316;2023-03-01T03:40:20;7.97;;;4.55;;
35777;SDS011;21899;42.662;23.316;2023-03-01T03:42:46;7.50;;;4.60;;
35777;SDS011;21899;42.662;23.316;2023-03-01T03:45:11;7.70;;;4.47;;
35777;SDS011;21899;42.662;23.316;2023-03-01T03:47:37;7.28;;;4.63;;
35777;SDS011;21899;42.662;23.316;2023-03-01T03:50:02;7.65;;;4.65;;
35777;SDS011;21899;42.662;23.316;2023-03-01T03:52:27;8.38;;;5.22;;
35777;SDS011;21899;42.662;23.316;2023-03-01T03:54:53;6.25;;;4.20;;
35777;SDS011;21899;42.662;23.316;2023-03-01T03:57:18;6.68;;;3.78;;
35777;SDS011;21899;42.662;23.316;2023-03-01T03:59:43;6.25;;;3.72;;
35777;SDS011;21899;42.662;23.316;2023-03-01T04:02:09;5.97;;;3.70;;
35777;SDS011;21899;42.662;23.316;2023-03-01T04:04:34;8.02;;;3.55;;
35777;SDS011;21899;42.662;23.316;2023-03-01T04:06:59;5.82;;;3.50;;
35777;SDS011;21899;42.662;23.316;2023-03-01T04:09:25;6.40;;;3.78;;
35777;SDS011;21899;42.662;23.316;2023-03-01T04:11:50;5.70;;;2.92;;
35777;SDS011;21899;42.662;23.316;2023-03-01T04:14:16;5.45;;;3.70;;
35777;SDS011;21899;42.662;23.316;2023-03-01T04:16:41;5.85;;;3.53;;
35777;SDS011;21899;42.662;23.316;2023-03-01T04:19:06;5.88;;;3.20;;
35777;SDS011;21899;42.662;23.316;2023-03-01T04:21:32;5.18;;;2.78;;
35777;SDS011;21899;42.662;23.316;2023-03-01T04:23:57;5.97;;;3.42;;
35777;SDS011;21899;42.662;23.316;2023-03-01T04:26:22;7.43;;;3.53;;
35777;SDS011;21899;42.662;23.316;2023-03-01T04:28:48;5.45;;;3.55;;
35777;SDS011;21899;42.662;23.316;2023-03-01T04:31:16;7.03;;;3.60;;
35777;SDS011;21899;42.662;23.316;2023-03-01T04:33:47;5.78;;;3.47;;
35777;SDS011;21899;42.662;23.316;2023-03-01T04:36:16;6.55;;;3.90;;
35777;SDS011;21899;42.662;23.316;2023-03-01T04:38:43;8.45;;;4.13;;
35777;SDS011;21899;42.662;23.316;2023-03-01T04:41:12;5.82;;;3.78;;
35777;SDS011;21899;42.662;23.316;2023-03-01T04:43:39;6.13;;;3.42;;
35777;SDS011;21899;42.662;23.316;2023-03-01T04:46:05;5.85;;;3.72;;
35777;SDS011;21899;42.662;23.316;2023-03-01T04:48:34;6.10;;;3.50;;
35777;SDS011;21899;42.662;23.316;2023-03-01T04:51:00;6.78;;;4.10;;
35777;SDS011;21899;42.662;23.316;2023-03-01T04:53:27;6.53;;;3.90;;
35777;SDS011;21899;42.662;23.316;2023-03-01T04:55:53;6.03;;;3.60;;
35777;SDS011;21899;42.662;23.316;2023-03-01T04:58:20;8.68;;;4.00;;
35777;SDS011;21899;42.662;23.316;2023-03-01T05:00:49;5.32;;;3.60;;
35777;SDS011;21899;42.662;23.316;2023-03-01T05:03:15;7.35;;;3.45;;
35777;SDS011;21899;42.662;23.316;2023-03-01T05:05:43;8.60;;;3.38;;
35777;SDS011;21899;42.662;23.316;2023-03-01T05:08:10;6.07;;;3.30;;
35777;SDS011;21899;42.662;23.316;2023-03-01T05:10:42;6.20;;;3.78;;
35777;SDS011;21899;42.662;23.316;2023-03-01T05:13:12;7.63;;;3.78;;
35777;SDS011;21899;42.662;23.316;2023-03-01T05:15:40;6.38;;;3.88;;
35777;SDS011;21899;42.662;23.316;2023-03-01T05:18:05;7.35;;;3.72;;
35777;SDS011;21899;42.662;23.316;2023-03-01T05:20:36;8.13;;;4.75;;
35777;SDS011;21899;42.662;23.316;2023-03-01T05:23:03;7.03;;;4.40;;
35777;SDS011;21899;42.662;23.316;2023-03-01T05:25:30;9.40;;;4.85;;
35777;SDS011;21899;42.662;23.316;2023-03-01T05:27:58;7.47;;;4.55;;
35777;SDS011;21899;42.662;23.316;2023-03-01T05:30:24;7.65;;;4.85;;
35777;SDS011;21899;42.662;23.316;2023-03-01T05:32:50;6.85;;;3.75;;
35777;SDS011;21899;42.662;23.316;2023-03-01T05:35:20;7.10;;;4.10;;
35777;SDS011;21899;42.662;23.316;2023-03-01T05:37:47;8.15;;;4.95;;
35777;SDS011;21899;42.662;23.316;2023-03-01T05:40:17;5.97;;;3.80;;
35777;SDS011;21899;42.662;23.316;2023-03-01T05:42:55;9.27;;;4.18;;
35777;SDS011;21899;42.662;23.316;2023-03-01T05:45:22;6.00;;;3.72;;
35777;SDS011;21899;42.662;23.316;2023-03-01T05:47:49;5.28;;;3.25;;
35777;SDS011;21899;42.662;23.316;2023-03-01T05:50:25;8.25;;;4.00;;
35777;SDS011;21899;42.662;23.316;2023-03-01T05:52:55;7.90;;;4.63;;
35777;SDS011;21899;42.662;23.316;2023-03-01T05:55:26;6.85;;;4.00;;
35777;SDS011;21899;42.662;23.316;2023-03-01T05:57:52;8.73;;;4.38;;
35777;SDS011;21899;42.662;23.316;2023-03-01T06:00:18;5.10;;;3.22;;
35777;SDS011;21899;42.662;23.316;2023-03-01T06:02:47;8.32;;;4.40;;
35777;SDS011;21899;42.662;23.316;2023-03-01T06:05:13;9.70;;;4.15;;
35777;SDS011;21899;42.662;23.316;2023-03-01T06:07:39;10.27;;;4.30;;
35777;SDS011;21899;42.662;23.316;2023-03-01T06:10:05;8.25;;;4.05;;
35777;SDS011;21899;42.662;23.316;2023-03-01T06:12:32;8.80;;;3.92;;
35777;SDS011;21899;42.662;23.316;2023-03-01T06:14:58;11.30;;;5.55;;
35777;SDS011;21899;42.662;23.316;2023-03-01T06:17:24;7.18;;;3.42;;
35777;SDS011;21899;42.662;23.316;2023-03-01T06:19:49;8.57;;;4.03;;
35777;SDS011;21899;42.662;23.316;2023-03-01T06:22:15;6.95;;;3.53;;
35777;SDS011;21899;42.662;23.316;2023-03-01T06:24:40;6.22;;;3.60;;
35777;SDS011;21899;42.662;23.316;2023-03-01T06:27:05;9.55;;;3.65;;
35777;SDS011;21899;42.662;23.316;2023-03-01T06:29:31;6.25;;;3.22;;
35777;SDS011;21899;42.662;23.316;2023-03-01T06:31:56;7.00;;;3.20;;
35777;SDS011;21899;42.662;23.316;2023-03-01T06:34:22;6.07;;;3.17;;
35777;SDS011;21899;42.662;23.316;2023-03-01T06:36:47;6.45;;;3.28;;
35777;SDS011;21899;42.662;23.316;2023-03-01T06:39:12;5.60;;;3.03;;
35777;SDS011;21899;42.662;23.316;2023-03-01T06:41:38;13.50;;;4.05;;
35777;SDS011;21899;42.662;23.316;2023-03-01T06:44:03;5.72;;;2.80;;
35777;SDS011;21899;42.662;23.316;2023-03-01T06:46:29;6.05;;;2.92;;
35777;SDS011;21899;42.662;23.316;2023-03-01T06:48:55;9.93;;;3.30;;
35777;SDS011;21899;42.662;23.316;2023-03-01T06:51:21;4.97;;;3.15;;
35777;SDS011;21899;42.662;23.316;2023-03-01T06:53:46;5.47;;;2.95;;
35777;SDS011;21899;42.662;23.316;2023-03-01T06:56:11;5.72;;;3.50;;
35777;SDS011;21899;42.662;23.316;2023-03-01T06:58:37;4.15;;;2.42;;
35777;SDS011;21899;42.662;23.316;2023-03-01T07:01:08;7.55;;;3.20;;
35777;SDS011;21899;42.662;23.316;2023-03-01T07:03:34;5.15;;;3.17;;
35777;SDS011;21899;42.662;23.316;2023-03-01T07:06:00;5.25;;;3.33;;
35777;SDS011;21899;42.662;23.316;2023-03-01T07:08:25;4.40;;;2.95;;
35777;SDS011;21899;42.662;23.316;2023-03-01T07:10:57;7.03;;;3.60;;
35777;SDS011;21899;42.662;23.316;2023-03-01T07:13:23;9.27;;;3.03;;
35777;SDS011;21899;42.662;23.316;2023-03-01T07:15:49;5.20;;;2.50;;
35777;SDS011;21899;42.662;23.316;2023-03-01T07:18:14;8.88;;;3.10;;
35777;SDS011;21899;42.662;23.316;2023-03-01T07:20:40;7.60;;;2.97;;
35777;SDS011;21899;42.662;23.316;2023-03-01T07:23:05;5.47;;;2.75;;
35777;SDS011;21899;42.662;23.316;2023-03-01T07:25:31;7.95;;;3.45;;
35777;SDS011;21899;42.662;23.316;2023-03-01T07:27:57;6.15;;;3.05;;
35777;SDS011;21899;42.662;23.316;2023-03-01T07:30:23;6.35;;;2.53;;
35777;SDS011;21899;42.662;23.316;2023-03-01T07:32:51;7.03;;;2.80;;
35777;SDS011;21899;42.662;23.316;2023-03-01T07:35:16;5.85;;;2.53;;
35777;SDS011;21899;42.662;23.316;2023-03-01T07:37:42;6.28;;;2.72;;
35777;SDS011;21899;42.662;23.316;2023-03-01T07:40:08;6.15;;;2.88;;
35777;SDS011;21899;42.662;23.316;2023-03-01T07:42:34;5.63;;;2.95;;
35777;SDS011;21899;42.662;23.316;2023-03-01T07:45:00;5.18;;;2.97;;
35777;SDS011;21899;42.662;23.316;2023-03-01T07:47:25;10.15;;;2.92;;
35777;SDS011;21899;42.662;23.316;2023-03-01T07:49:50;3.97;;;2.30;;
35777;SDS011;21899;42.662;23.316;2023-03-01T07:52:16;6.78;;;2.92;;
35777;SDS011;21899;42.662;23.316;2023-03-01T07:54:44;9.77;;;3.13;;
35777;SDS011;21899;42.662;23.316;2023-03-01T07:57:10;6.57;;;3.35;;
35777;SDS011;21899;42.662;23.316;2023-03-01T07:59:35;7.68;;;2.65;;
35777;SDS011;21899;42.662;23.316;2023-03-01T08:02:01;8.93;;;4.25;;
35777;SDS011;21899;42.662;23.316;2023-03-01T08:04:26;6.63;;;3.38;;
35777;SDS011;21899;42.662;23.316;2023-03-01T08:06:52;9.80;;;3.75;;
35777;SDS011;21899;42.662;23.316;2023-03-01T08:09:19;8.63;;;3.72;;
35777;SDS011;21899;42.662;23.316;2023-03-01T08:11:44;7.68;;;2.95;;
35777;SDS011;21899;42.662;23.316;2023-03-01T08:14:10;10.10;;;3.65;;
35777;SDS011;21899;42.662;23.316;2023-03-01T08:16:35;8.00;;;4.10;;
35777;SDS011;21899;42.662;23.316;2023-03-01T08:19:05;9.00;;;3.20;;
35777;SDS011;21899;42.662;23.316;2023-03-01T08:21:32;10.50;;;5.50;;
35777;SDS011;21899;42.662;23.316;2023-03-01T08:23:59;9.02;;;5.63;;
35777;SDS011;21899;42.662;23.316;2023-03-01T08:26:25;9.05;;;5.25;;
35777;SDS011;21899;42.662;23.316;2023-03-01T08:28:51;11.93;;;6.80;;
35777;SDS011;21899;42.662;23.316;2023-03-01T08:31:23;7.00;;;4.15;;
35777;SDS011;21899;42.662;23.316;2023-03-01T08:33:51;9.98;;;4.28;;
35777;SDS011;21899;42.662;23.316;2023-03-01T08:36:25;5.20;;;3.67;;
35777;SDS011;21899;42.662;23.316;2023-03-01T08:38:52;6.03;;;4.45;;
35777;SDS011;21899;42.662;23.316;2023-03-01T08:41:18;7.68;;;3.78;;
35777;SDS011;21899;42.662;23.316;2023-03-01T08:43:43;7.13;;;4.57;;
35777;SDS011;21899;42.662;23.316;2023-03-01T08:46:09;7.20;;;3.00;;
35777;SDS011;21899;42.662;23.316;2023-03-01T08:48:36;4.72;;;2.95;;
35777;SDS011;21899;42.662;23.316;2023-03-01T08:51:11;3.05;;;2.03;;
35777;SDS011;21899;42.662;23.316;2023-03-01T08:53:41;7.85;;;2.63;;
35777;SDS011;21899;42.662;23.316;2023-03-01T08:56:07;3.95;;;2.13;;
35777;SDS011;21899;42.662;23.316;2023-03-01T08:58:34;3.50;;;2.10;;
35777;SDS011;21899;42.662;23.316;2023-03-01T09:01:00;7.82;;;3.00;;
35777;SDS011;21899;42.662;23.316;2023-03-01T09:03:26;5.90;;;3.13;;
35777;SDS011;21899;42.662;23.316;2023-03-01T09:05:52;5.38;;;3.10;;
35777;SDS011;21899;42.662;23.316;2023-03-01T09:08:18;5.35;;;2.90;;
35777;SDS011;21899;42.662;23.316;2023-03-01T09:10:44;8.10;;;3.38;;
35777;SDS011;21899;42.662;23.316;2023-03-01T09:13:10;6.05;;;3.33;;
35777;SDS011;21899;42.662;23.316;2023-03-01T09:15:36;5.75;;;3.15;;
35777;SDS011;21899;42.662;23.316;2023-03-01T09:18:02;6.45;;;4.25;;
35777;SDS011;21899;42.662;23.316;2023-03-01T09:20:28;7.00;;;3.28;;
35777;SDS011;21899;42.662;23.316;2023-03-01T09:22:53;5.30;;;3.20;;
35777;SDS011;21899;42.662;23.316;2023-03-01T09:25:18;6.63;;;2.88;;
35777;SDS011;21899;42.662;23.316;2023-03-01T09:27:44;3.17;;;2.15;;
35777;SDS011;21899;42.662;23.316;2023-03-01T09:30:09;4.65;;;2.83;;
35777;SDS011;21899;42.662;23.316;2023-03-01T09:32:35;4.63;;;2.47;;
35777;SDS011;21899;42.662;23.316;2023-03-01T09:35:01;5.07;;;2.55;;
35777;SDS011;21899;42.662;23.316;2023-03-01T09:37:31;4.57;;;2.50;;
35777;SDS011;21899;42.662;23.316;2023-03-01T09:39:57;4.10;;;2.33;;
35777;SDS011;21899;42.662;23.316;2023-03-01T09:42:22;6.82;;;2.38;;
35777;SDS011;21899;42.662;23.316;2023-03-01T09:44:51;4.13;;;2.33;;
35777;SDS011;21899;42.662;23.316;2023-03-01T09:47:30;5.95;;;2.47;;
35777;SDS011;21899;42.662;23.316;2023-03-01T09:50:06;7.32;;;2.70;;
35777;SDS011;21899;42.662;23.316;2023-03-01T09:55:14;5.90;;;2.10;;
35777;SDS011;21899;42.662;23.316;2023-03-01T09:57:50;6.82;;;1.92;;
35777;SDS011;21899;42.662;23.316;2023-03-01T10:02:51;3.53;;;1.77;;
35777;SDS011;21899;42.662;23.316;2023-03-01T10:10:34;6.10;;;1.70;;
35777;SDS011;21899;42.662;23.316;2023-03-01T10:13:04;4.07;;;2.22;;
35777;SDS011;21899;42.662;23.316;2023-03-01T10:16:00;4.25;;;2.05;;
35777;SDS011;21899;42.662;23.316;2023-03-01T10:18:31;6.70;;;2.60;;
35777;SDS011;21899;42.662;23.316;2023-03-01T10:20:59;4.78;;;2.25;;
35777;SDS011;21899;42.662;23.316;2023-03-01T10:23:29;4.13;;;2.50;;
35777;SDS011;21899;42.662;23.316;2023-03-01T10:26:19;4.32;;;2.40;;
35777;SDS011;21899;42.662;23.316;2023-03-01T10:28:50;4.90;;;2.55;;
35777;SDS011;21899;42.662;23.316;2023-03-01T10:31:29;3.97;;;2.15;;
35777;SDS011;21899;42.662;23.316;2023-03-01T10:34:02;6.13;;;2.80;;
35777;SDS011;21899;42.662;23.316;2023-03-01T10:36:32;5.13;;;2.60;;
35777;SDS011;21899;42.662;23.316;2023-03-01T10:38:58;5.18;;;2.97;;
35777;SDS011;21899;42.662;23.316;2023-03-01T10:41:25;6.75;;;3.35;;
35777;SDS011;21899;42.662;23.316;2023-03-01T10:43:55;6.88;;;3.17;;
35777;SDS011;21899;42.662;23.316;2023-03-01T10:46:26;9.98;;;3.92;;
35777;SDS011;21899;42.662;23.316;2023-03-01T10:49:05;4.75;;;2.72;;
35777;SDS011;21899;42.662;23.316;2023-03-01T10:51:43;5.72;;;2.28;;
35777;SDS011;21899;42.662;23.316;2023-03-01T10:54:15;5.95;;;3.00;;
35777;SDS011;21899;42.662;23.316;2023-03-01T10:56:56;4.47;;;2.92;;
35777;SDS011;21899;42.662;23.316;2023-03-01T11:05:19;4.28;;;2.50;;
35777;SDS011;21899;42.662;23.316;2023-03-01T11:07:55;7.25;;;3.17;;
35777;SDS011;21899;42.662;23.316;2023-03-01T11:10:23;4.00;;;2.70;;
35777;SDS011;21899;42.662;23.316;2023-03-01T11:12:52;5.53;;;3.30;;
35777;SDS011;21899;42.662;23.316;2023-03-01T11:15:26;4.25;;;2.72;;
35777;SDS011;21899;42.662;23.316;2023-03-01T11:20:24;5.90;;;3.10;;
35777;SDS011;21899;42.662;23.316;2023-03-01T11:22:53;10.15;;;3.25;;
35777;SDS011;21899;42.662;23.316;2023-03-01T11:25:21;7.28;;;3.53;;
35777;SDS011;21899;42.662;23.316;2023-03-01T11:27:50;8.35;;;3.88;;
35777;SDS011;21899;42.662;23.316;2023-03-01T11:32:58;4.13;;;2.67;;
35777;SDS011;21899;42.662;23.316;2023-03-01T11:35:30;5.78;;;2.90;;
35777;SDS011;21899;42.662;23.316;2023-03-01T11:45:22;5.65;;;3.50;;
35777;SDS011;21899;42.662;23.316;2023-03-01T11:48:04;6.60;;;3.17;;
35777;SDS011;21899;42.662;23.316;2023-03-01T11:50:46;7.30;;;3.10;;
35777;SDS011;21899;42.662;23.316;2023-03-01T11:58:51;6.72;;;3.60;;
35777;SDS011;21899;42.662;23.316;2023-03-01T12:06:52;6.38;;;4.32;;
35777;SDS011;21899;42.662;23.316;2023-03-01T12:17:40;5.78;;;3.40;;
35777;SDS011;21899;42.662;23.316;2023-03-01T12:31:53;7.60;;;3.65;;
35777;SDS011;21899;42.662;23.316;2023-03-01T12:40:29;5.38;;;3.40;;
35777;SDS011;21899;42.662;23.316;2023-03-01T12:48:00;9.02;;;4.15;;
35777;SDS011;21899;42.662;23.316;2023-03-01T12:50:44;8.48;;;3.97;;
35777;SDS011;21899;42.662;23.316;2023-03-01T12:53:35;7.33;;;3.23;;
35777;SDS011;21899;42.662;23.316;2023-03-01T12:56:05;7.40;;;3.88;;
35777;SDS011;21899;42.662;23.316;2023-03-01T13:20:21;11.82;;;3.95;;
35777;SDS011;21899;42.662;23.316;2023-03-01T13:23:00;6.95;;;3.75;;
35777;SDS011;21899;42.662;23.316;2023-03-01T13:28:40;12.07;;;4.18;;
35777;SDS011;21899;42.662;23.316;2023-03-01T13:31:10;10.55;;;4.03;;
35777;SDS011;21899;42.662;23.316;2023-03-01T13:33:57;11.95;;;4.97;;
35777;SDS011;21899;42.662;23.316;2023-03-01T13:47:04;6.03;;;3.92;;
35777;SDS011;21899;42.662;23.316;2023-03-01T13:54:56;6.70;;;4.13;;
35777;SDS011;21899;42.662;23.316;2023-03-01T13:57:24;6.57;;;3.95;;
35777;SDS011;21899;42.662;23.316;2023-03-01T13:59:54;7.63;;;3.90;;
35777;SDS011;21899;42.662;23.316;2023-03-01T14:02:20;9.20;;;4.05;;
35777;SDS011;21899;42.662;23.316;2023-03-01T14:04:46;8.77;;;4.50;;
35777;SDS011;21899;42.662;23.316;2023-03-01T14:07:22;8.70;;;4.70;;
35777;SDS011;21899;42.662;23.316;2023-03-01T14:09:52;8.27;;;3.97;;
35777;SDS011;21899;42.662;23.316;2023-03-01T14:20:17;9.25;;;3.85;;
35777;SDS011;21899;42.662;23.316;2023-03-01T14:22:45;9.45;;;4.07;;
35777;SDS011;21899;42.662;23.316;2023-03-01T14:25:22;8.32;;;4.60;;
35777;SDS011;21899;42.662;23.316;2023-03-01T14:27:56;8.80;;;4.38;;
35777;SDS011;21899;42.662;23.316;2023-03-01T14:30:25;9.23;;;4.28;;
35777;SDS011;21899;42.662;23.316;2023-03-01T14:32:57;6.43;;;4.28;;
35777;SDS011;21899;42.662;23.316;2023-03-01T14:35:25;8.63;;;4.38;;
35777;SDS011;21899;42.662;23.316;2023-03-01T14:37:52;7.60;;;3.92;;
35777;SDS011;21899;42.662;23.316;2023-03-01T14:42:48;7.25;;;3.75;;
35777;SDS011;21899;42.662;23.316;2023-03-01T14:45:14;8.48;;;4.35;;
35777;SDS011;21899;42.662;23.316;2023-03-01T14:47:39;6.95;;;3.72;;
35777;SDS011;21899;42.662;23.316;2023-03-01T14:50:13;7.22;;;3.95;;
35777;SDS011;21899;42.662;23.316;2023-03-01T14:53:01;6.63;;;3.65;;
35777;SDS011;21899;42.662;23.316;2023-03-01T14:55:33;6.43;;;3.65;;
35777;SDS011;21899;42.662;23.316;2023-03-01T14:58:06;9.90;;;2.97;;
35777;SDS011;21899;42.662;23.316;2023-03-01T15:00:36;9.00;;;3.72;;
35777;SDS011;21899;42.662;23.316;2023-03-01T15:03:12;5.90;;;2.58;;
35777;SDS011;21899;42.662;23.316;2023-03-01T15:05:45;7.53;;;3.42;;
35777;SDS011;21899;42.662;23.316;2023-03-01T15:08:18;7.95;;;2.92;;
35777;SDS011;21899;42.662;23.316;2023-03-01T15:10:58;7.15;;;3.05;;
35777;SDS011;21899;42.662;23.316;2023-03-01T15:13:45;8.55;;;3.80;;
35777;SDS011;21899;42.662;23.316;2023-03-01T15:16:14;8.07;;;3.10;;
35777;SDS011;21899;42.662;23.316;2023-03-01T15:18:45;10.02;;;4.60;;
35777;SDS011;21899;42.662;23.316;2023-03-01T15:23:41;9.68;;;4.43;;
35777;SDS011;21899;42.662;23.316;2023-03-01T15:26:21;6.30;;;3.65;;
35777;SDS011;21899;42.662;23.316;2023-03-01T15:28:55;8.48;;;4.68;;
35777;SDS011;21899;42.662;23.316;2023-03-01T15:31:32;9.45;;;4.63;;
35777;SDS011;21899;42.662;23.316;2023-03-01T15:39:50;6.47;;;3.83;;
35777;SDS011;21899;42.662;23.316;2023-03-01T15:42:08;8.82;;;4.72;;
35777;SDS011;21899;42.662;23.316;2023-03-01T15:45:06;9.77;;;4.55;;
35777;SDS011;21899;42.662;23.316;2023-03-01T15:47:56;7.60;;;4.25;;
35777;SDS011;21899;42.662;23.316;2023-03-01T15:50:42;8.93;;;4.43;;
35777;SDS011;21899;42.662;23.316;2023-03-01T15:53:12;6.93;;;3.67;;
35777;SDS011;21899;42.662;23.316;2023-03-01T15:55:39;7.38;;;4.53;;
35777;SDS011;21899;42.662;23.316;2023-03-01T15:58:15;8.00;;;4.25;;
35777;SDS011;21899;42.662;23.316;2023-03-01T16:00:46;7.85;;;4.18;;
35777;SDS011;21899;42.662;23.316;2023-03-01T16:03:13;8.25;;;4.00;;
35777;SDS011;21899;42.662;23.316;2023-03-01T16:05:46;7.18;;;3.80;;
35777;SDS011;21899;42.662;23.316;2023-03-01T16:08:12;12.13;;;4.28;;
35777;SDS011;21899;42.662;23.316;2023-03-01T16:10:38;6.30;;;3.90;;
35777;SDS011;21899;42.662;23.316;2023-03-01T16:13:05;7.35;;;4.22;;
35777;SDS011;21899;42.662;23.316;2023-03-01T16:15:32;8.88;;;4.90;;
35777;SDS011;21899;42.662;23.316;2023-03-01T16:18:03;8.15;;;4.15;;
35777;SDS011;21899;42.662;23.316;2023-03-01T16:20:30;10.95;;;4.63;;
35777;SDS011;21899;42.662;23.316;2023-03-01T16:23:03;9.90;;;5.93;;
35777;SDS011;21899;42.662;23.316;2023-03-01T16:25:31;9.60;;;4.32;;
35777;SDS011;21899;42.662;23.316;2023-03-01T16:27:57;7.60;;;4.07;;
35777;SDS011;21899;42.662;23.316;2023-03-01T16:30:26;7.50;;;4.00;;
35777;SDS011;21899;42.662;23.316;2023-03-01T16:32:52;8.95;;;4.55;;
35777;SDS011;21899;42.662;23.316;2023-03-01T16:35:18;10.10;;;4.57;;
35777;SDS011;21899;42.662;23.316;2023-03-01T16:37:45;8.00;;;4.10;;
35777;SDS011;21899;42.662;23.316;2023-03-01T16:40:22;9.75;;;5.45;;
35777;SDS011;21899;42.662;23.316;2023-03-01T16:42:49;7.68;;;3.88;;
35777;SDS011;21899;42.662;23.316;2023-03-01T16:45:15;13.25;;;3.88;;
35777;SDS011;21899;42.662;23.316;2023-03-01T16:47:41;7.78;;;3.67;;
35777;SDS011;21899;42.662;23.316;2023-03-01T16:50:07;10.27;;;4.45;;
35777;SDS011;21899;42.662;23.316;2023-03-01T16:52:33;9.68;;;5.07;;
35777;SDS011;21899;42.662;23.316;2023-03-01T16:54:58;8.65;;;4.07;;
35777;SDS011;21899;42.662;23.316;2023-03-01T16:57:24;8.80;;;4.07;;
35777;SDS011;21899;42.662;23.316;2023-03-01T16:59:52;8.65;;;3.63;;
35777;SDS011;21899;42.662;23.316;2023-03-01T17:02:20;8.10;;;3.88;;
35777;SDS011;21899;42.662;23.316;2023-03-01T17:04:53;8.80;;;4.05;;
35777;SDS011;21899;42.662;23.316;2023-03-01T17:07:20;6.97;;;3.93;;
35777;SDS011;21899;42.662;23.316;2023-03-01T17:09:45;7.75;;;3.85;;
35777;SDS011;21899;42.662;23.316;2023-03-01T17:12:14;8.68;;;3.92;;